createdAt,value
2023-05-19T00:02:01.078Z,96855.66
2023-05-19T00:04:33.702Z,96860.78
2023-05-19T00:07:08.221Z,96858.72
2023-05-19T00:09:42.602Z,96857.47
2023-05-19T00:12:14.991Z,96847.53
2023-05-19T00:14:46.921Z,96848.25
2023-05-19T00:17:18.832Z,96845.44
2023-05-19T00:19:50.414Z,96843.69
2023-05-19T00:22:22.087Z,96837.81
2023-05-19T00:24:53.625Z,96838.81
2023-05-19T00:27:25.280Z,96839.34
2023-05-19T00:29:56.813Z,96846.25
2023-05-19T00:32:28.408Z,96841.16
2023-05-19T00:35:07.150Z,96845.22
2023-05-19T00:37:38.658Z,96837.56
2023-05-19T00:40:10.804Z,96845.25
2023-05-19T00:42:42.424Z,96840.38
2023-05-19T00:45:14.092Z,96835.78
2023-05-19T00:47:45.824Z,96838.59
2023-05-19T00:50:17.473Z,96838.56
2023-05-19T00:52:49.030Z,96832.47
2023-05-19T00:55:28.943Z,96841.91
2023-05-19T00:58:01.387Z,96835.78
2023-05-19T01:00:34.013Z,96844.19
2023-05-19T01:03:13.109Z,96837.56
2023-05-19T01:05:44.993Z,96832.19
2023-05-19T01:08:17.155Z,96824.28
2023-05-19T01:10:48.889Z,96826.06
2023-05-19T01:13:23.772Z,96823.50
2023-05-19T01:16:08.997Z,96829.41
2023-05-19T01:18:58.643Z,96819.97
2023-05-19T01:22:13.110Z,96824.28
2023-05-19T01:25:24.294Z,96820.47
2023-05-19T01:28:55.242Z,96834.75
2023-05-19T01:31:27.622Z,96837.25
2023-05-19T01:34:04.758Z,96834.25
2023-05-19T01:36:37.633Z,96835.25
2023-05-19T01:39:09.501Z,96837.06
2023-05-19T01:41:44.749Z,96831.94
2023-05-19T01:44:16.503Z,96835.78
2023-05-19T01:46:48.919Z,96830.66
2023-05-19T01:49:20.690Z,96828.63
2023-05-19T01:51:53.403Z,96824.00
2023-05-19T01:54:25.198Z,96820.94
2023-05-19T01:57:32.301Z,96825.06
2023-05-19T02:00:28.422Z,96826.53
2023-05-19T02:03:28.063Z,96828.63
2023-05-19T02:06:18.422Z,96825.50
2023-05-19T02:09:10.083Z,96819.69
2023-05-19T02:12:30.684Z,96816.75
2023-05-19T02:15:21.748Z,96829.56
2023-05-19T02:17:55.483Z,96821.44
2023-05-19T02:20:27.271Z,96830.06
2023-05-19T02:22:58.920Z,96827.53
2023-05-19T02:25:30.592Z,96817.34
2023-05-19T02:28:02.262Z,96823.13
2023-05-19T02:30:34.215Z,96822.88
2023-05-19T02:33:06.617Z,96823.19
2023-05-19T02:35:38.281Z,96825.00
2023-05-19T02:38:09.974Z,96825.22
2023-05-19T02:40:41.593Z,96814.22
2023-05-19T02:43:13.312Z,96823.44
2023-05-19T02:45:45.420Z,96816.25
2023-05-19T02:48:17.029Z,96817.00
2023-05-19T02:50:48.632Z,96811.13
2023-05-19T02:53:20.296Z,96815.75
2023-05-19T02:55:51.908Z,96810.63
2023-05-19T02:58:23.541Z,96821.41
2023-05-19T03:00:56.079Z,96804.47
2023-05-19T03:03:28.802Z,96804.00
2023-05-19T03:06:01.883Z,96804.00
2023-05-19T03:08:33.481Z,96803.53
2023-05-19T03:11:05.171Z,96808.53
2023-05-19T03:13:36.754Z,96790.34
2023-05-19T03:16:08.731Z,96800.34
2023-05-19T03:18:41.778Z,96795.31
2023-05-19T03:21:13.435Z,96800.84
2023-05-19T03:23:45.021Z,96807.44
2023-05-19T03:26:16.624Z,96804.09
2023-05-19T03:28:48.269Z,96804.38
2023-05-19T03:31:19.888Z,96803.41
2023-05-19T03:33:51.473Z,96807.94
2023-05-19T03:36:23.222Z,96807.91
2023-05-19T03:38:54.844Z,96802.91
2023-05-19T03:41:26.497Z,96804.34
2023-05-19T03:43:58.139Z,96803.34
2023-05-19T03:46:29.889Z,96805.72
2023-05-19T03:49:01.604Z,96814.19
2023-05-19T03:51:34.917Z,96808.47
2023-05-19T03:54:06.828Z,96812.59
2023-05-19T03:56:43.324Z,96810.13
2023-05-19T03:59:16.252Z,96810.63
2023-05-19T04:01:48.817Z,96814.69
2023-05-19T04:04:21.670Z,96810.03
2023-05-19T04:06:53.329Z,96815.13
2023-05-19T04:09:24.987Z,96812.91
2023-05-19T04:11:58.628Z,96812.47
2023-05-19T04:14:30.223Z,96823.44
2023-05-19T04:17:01.996Z,96812.16
2023-05-19T04:19:33.650Z,96812.22
2023-05-19T04:22:05.414Z,96810.13
2023-05-19T04:24:37.011Z,96823.38
2023-05-19T04:27:12.209Z,96810.56
2023-05-19T04:29:46.122Z,96823.41
2023-05-19T04:32:20.780Z,96818.84
2023-05-19T04:34:52.484Z,96826.44
2023-05-19T04:37:25.825Z,96820.81
2023-05-19T04:39:57.433Z,96825.63
2023-05-19T04:42:30.755Z,96829.81
2023-05-19T04:45:05.343Z,96824.25
2023-05-19T04:47:38.187Z,96835.69
2023-05-19T04:50:13.030Z,96829.03
2023-05-19T04:52:47.487Z,96838.78
2023-05-19T04:55:19.089Z,96840.06
2023-05-19T04:57:50.739Z,96836.38
2023-05-19T05:00:22.417Z,96845.13
2023-05-19T05:02:57.549Z,96841.59
2023-05-19T05:05:29.249Z,96836.03
2023-05-19T05:08:01.219Z,96835.97
2023-05-19T05:10:32.979Z,96837.06
2023-05-19T05:13:05.116Z,96831.09
2023-05-19T05:15:36.990Z,96833.13
2023-05-19T05:18:09.099Z,96834.97
2023-05-19T05:20:43.173Z,96835.50
2023-05-19T05:23:15.260Z,96835.25
2023-05-19T05:25:47.399Z,96842.41
2023-05-19T05:28:19.299Z,96835.53
2023-05-19T05:30:51.040Z,96840.63
2023-05-19T05:33:24.840Z,96839.63
2023-05-19T05:35:57.125Z,96844.44
2023-05-19T05:38:28.736Z,96843.91
2023-05-19T05:41:02.606Z,96843.41
2023-05-19T05:43:34.359Z,96838.31
2023-05-19T05:46:06.117Z,96846.22
2023-05-19T05:48:38.189Z,96851.56
2023-05-19T05:51:12.679Z,96846.41
2023-05-19T05:53:49.958Z,96853.66
2023-05-19T05:56:22.381Z,96857.44
2023-05-19T05:58:54.117Z,96853.31
2023-05-19T06:01:26.026Z,96856.44
2023-05-19T06:03:57.828Z,96849.22
2023-05-19T06:06:29.511Z,96846.91
2023-05-19T06:09:01.186Z,96854.53
2023-05-19T06:11:32.898Z,96850.34
2023-05-19T06:14:04.581Z,96853.59
2023-05-19T06:16:36.303Z,96850.25
2023-05-19T06:19:08.175Z,96852.41
2023-05-19T06:21:39.840Z,96861.06
2023-05-19T06:24:11.924Z,96855.06
2023-05-19T06:26:43.622Z,96857.53
2023-05-19T06:29:15.286Z,96848.16
2023-05-19T06:31:47.048Z,96858.94
2023-05-19T06:34:18.807Z,96862.09
2023-05-19T06:36:50.449Z,96856.69
2023-05-19T06:39:24.359Z,96860.56
2023-05-19T06:41:56.011Z,96855.13
2023-05-19T06:44:27.574Z,96852.53
2023-05-19T06:46:59.228Z,96847.97
2023-05-19T06:49:30.872Z,96859.16
2023-05-19T06:52:06.086Z,96859.88
2023-05-19T06:54:38.293Z,96852.88
2023-05-19T06:57:17.512Z,96856.09
2023-05-19T06:59:49.094Z,96853.78
2023-05-19T07:02:20.919Z,96853.13
2023-05-19T07:04:54.143Z,96853.53
2023-05-19T07:07:26.758Z,96849.88
2023-05-19T07:09:58.353Z,96864.41
2023-05-19T07:12:29.998Z,96866.47
2023-05-19T07:15:01.708Z,96859.38
2023-05-19T07:17:33.383Z,96864.94
2023-05-19T07:20:10.112Z,96869.78
2023-05-19T07:22:41.808Z,96863.50
2023-05-19T07:25:16.556Z,96863.16
2023-05-19T07:27:48.261Z,96859.44
2023-05-19T07:30:19.920Z,96856.28
2023-05-19T07:32:51.863Z,96857.16
2023-05-19T07:35:23.847Z,96866.19
2023-05-19T07:37:55.631Z,96861.94
2023-05-19T07:40:27.419Z,96857.88
2023-05-19T07:42:59.059Z,96859.03
2023-05-19T07:45:30.741Z,96856.09
2023-05-19T07:48:02.411Z,96855.63
2023-05-19T07:50:34.266Z,96847.50
2023-05-19T07:53:06.204Z,96837.50
2023-05-19T07:55:37.793Z,96846.91
2023-05-19T07:58:09.431Z,96842.31
2023-05-19T08:00:43.189Z,96846.97
2023-05-19T08:03:17.853Z,96847.94
2023-05-19T08:05:49.724Z,96844.91
2023-05-19T08:08:22.082Z,96845.78
2023-05-19T08:10:53.842Z,96846.09
2023-05-19T08:13:25.540Z,96855.53
2023-05-19T08:15:59.881Z,96847.94
2023-05-19T08:18:31.709Z,96850.09
2023-05-19T08:21:03.621Z,96843.75
2023-05-19T08:23:37.256Z,96854.41
2023-05-19T08:26:08.883Z,96854.44
2023-05-19T08:28:40.528Z,96844.56
2023-05-19T08:31:14.251Z,96841.31
2023-05-19T08:33:46.058Z,96841.19
2023-05-19T08:36:18.375Z,96839.00
2023-05-19T08:38:49.962Z,96835.66
2023-05-19T08:41:23.269Z,96835.75
2023-05-19T08:43:55.376Z,96836.50
2023-05-19T08:46:28.717Z,96832.97
2023-05-19T08:49:13.119Z,96835.81
2023-05-19T08:52:00.340Z,96836.59
2023-05-19T08:54:45.912Z,96823.88
2023-05-19T08:57:17.683Z,96823.50
2023-05-19T08:59:52.210Z,96824.47
2023-05-19T09:02:24.491Z,96830.03
2023-05-19T09:04:57.765Z,96818.06
2023-05-19T09:07:35.558Z,96820.69
2023-05-19T09:10:09.032Z,96821.50
2023-05-19T09:12:45.462Z,96826.19
2023-05-19T09:15:19.248Z,96824.50
2023-05-19T09:17:51.063Z,96824.56
2023-05-19T09:20:22.728Z,96809.84
2023-05-19T09:22:54.319Z,96815.88
2023-05-19T09:25:26.480Z,96820.78
2023-05-19T09:27:58.124Z,96818.53
2023-05-19T09:30:30.127Z,96820.03
2023-05-19T09:33:01.975Z,96817.44
2023-05-19T09:35:35.054Z,96816.72
2023-05-19T09:38:06.920Z,96810.06
2023-05-19T09:40:38.634Z,96818.78
2023-05-19T09:43:10.330Z,96816.88
2023-05-19T09:45:42.462Z,96816.81
2023-05-19T09:48:17.155Z,96806.22
2023-05-19T09:50:51.689Z,96810.03
2023-05-19T09:53:27.408Z,96812.63
2023-05-19T09:56:01.691Z,96802.84
2023-05-19T09:58:35.628Z,96805.81
2023-05-19T10:01:08.664Z,96809.38
2023-05-19T10:03:41.646Z,96802.41
2023-05-19T10:06:15.620Z,96807.53
2023-05-19T10:08:48.123Z,96810.00
2023-05-19T10:11:21.695Z,96798.00
2023-05-19T10:13:53.351Z,96804.31
2023-05-19T10:16:26.705Z,96799.34
2023-05-19T10:19:00.871Z,96813.44
2023-05-19T10:21:33.178Z,96787.41
2023-05-19T10:24:05.225Z,96795.09
2023-05-19T10:26:37.652Z,96798.50
2023-05-19T10:29:10.701Z,96799.09
2023-05-19T10:31:43.660Z,96790.47
2023-05-19T10:34:59.327Z,96795.53
2023-05-19T10:38:04.053Z,96790.66
2023-05-19T10:41:00.143Z,96794.94
2023-05-19T10:43:49.934Z,96796.53
2023-05-19T10:46:27.189Z,96802.00
2023-05-19T10:48:59.644Z,96796.72
2023-05-19T10:51:32.379Z,96793.78
2023-05-19T10:54:15.994Z,96793.56
2023-05-19T10:56:47.621Z,96795.56
2023-05-19T10:59:34.649Z,96786.84
2023-05-19T11:02:08.858Z,96786.75
2023-05-19T11:04:51.780Z,96788.63
2023-05-19T11:07:24.862Z,96792.25
2023-05-19T11:09:56.569Z,96793.78
2023-05-19T11:12:28.351Z,96790.91
2023-05-19T11:15:00.011Z,96788.25
2023-05-19T11:17:33.164Z,96797.34
2023-05-19T11:20:12.666Z,96797.03
2023-05-19T11:23:07.391Z,96799.53
2023-05-19T11:25:47.189Z,96796.22
2023-05-19T11:28:25.952Z,96790.16
2023-05-19T11:30:59.047Z,96793.88
2023-05-19T11:33:32.655Z,96787.03
2023-05-19T11:36:07.278Z,96791.41
2023-05-19T11:38:38.964Z,96791.03
2023-05-19T11:41:10.584Z,96784.66
2023-05-19T11:43:42.506Z,96777.84
2023-05-19T11:46:17.996Z,96782.09
2023-05-19T11:48:50.537Z,96780.41
2023-05-19T11:51:25.242Z,96784.97
2023-05-19T11:53:56.868Z,96778.72
2023-05-19T11:56:35.192Z,96783.25
2023-05-19T11:59:07.045Z,96783.34
2023-05-19T12:01:38.710Z,96775.53
2023-05-19T12:04:10.622Z,96771.03
2023-05-19T12:06:42.276Z,96766.53
2023-05-19T12:09:15.113Z,96785.16
2023-05-19T12:11:47.702Z,96773.97
2023-05-19T12:14:19.490Z,96785.19
2023-05-19T12:16:51.151Z,96777.56
2023-05-19T12:19:25.888Z,96777.72
2023-05-19T12:21:57.910Z,96775.88
2023-05-19T12:24:30.679Z,96778.53
2023-05-19T12:27:24.116Z,96777.66
2023-05-19T12:29:59.540Z,96776.47
2023-05-19T12:32:34.402Z,96778.78
2023-05-19T12:35:07.186Z,96778.53
2023-05-19T12:37:43.268Z,96770.13
2023-05-19T12:40:18.066Z,96779.47
2023-05-19T12:42:51.964Z,96769.69
2023-05-19T12:45:25.700Z,96768.31
2023-05-19T12:47:57.800Z,96760.38
2023-05-19T12:50:34.393Z,96757.81
2023-05-19T12:53:11.342Z,96753.44
2023-05-19T12:55:45.582Z,96750.03
2023-05-19T12:58:17.332Z,96747.72
2023-05-19T13:00:49.988Z,96738.03
2023-05-19T13:03:24.546Z,96737.91
2023-05-19T13:05:56.271Z,96745.75
2023-05-19T13:08:27.955Z,96746.94
2023-05-19T13:11:02.738Z,96740.06
2023-05-19T13:13:34.426Z,96743.97
2023-05-19T13:16:09.059Z,96742.28
2023-05-19T13:18:40.746Z,96747.56
2023-05-19T13:21:12.423Z,96743.13
2023-05-19T13:23:44.016Z,96735.47
2023-05-19T13:26:15.574Z,96740.25
2023-05-19T13:28:47.907Z,96747.13
2023-05-19T13:31:19.657Z,96743.47
2023-05-19T13:33:51.273Z,96743.84
2023-05-19T13:36:22.981Z,96739.63
2023-05-19T13:38:54.824Z,96744.38
2023-05-19T13:41:26.918Z,96739.75
2023-05-19T13:43:59.592Z,96748.16
2023-05-19T13:46:43.989Z,96745.06
2023-05-19T13:49:17.484Z,96745.13
2023-05-19T13:51:49.914Z,96744.34
2023-05-19T13:54:21.600Z,96743.78
2023-05-19T13:56:56.486Z,96753.88
2023-05-19T13:59:28.414Z,96742.09
2023-05-19T14:02:00.661Z,96746.25
2023-05-19T14:04:32.347Z,96747.78
2023-05-19T14:07:06.143Z,96735.22
2023-05-19T14:09:37.844Z,96735.50
2023-05-19T14:12:12.326Z,96743.25
2023-05-19T14:14:43.941Z,96743.25
2023-05-19T14:17:15.952Z,96739.06
2023-05-19T14:19:53.277Z,96731.22
2023-05-19T14:22:25.249Z,96734.63
2023-05-19T14:24:59.055Z,96729.47
2023-05-19T14:27:33.375Z,96730.31
2023-05-19T14:30:06.043Z,96726.72
2023-05-19T14:32:37.677Z,96734.81
2023-05-19T14:35:09.672Z,96732.44
2023-05-19T14:37:41.299Z,96732.06
2023-05-19T14:40:13.304Z,96736.41
2023-05-19T14:42:44.948Z,96727.50
2023-05-19T14:45:16.712Z,96738.53
2023-05-19T14:47:48.463Z,96723.38
2023-05-19T14:50:20.469Z,96732.09
2023-05-19T14:52:52.084Z,96732.19
2023-05-19T14:55:23.812Z,96730.72
2023-05-19T14:57:55.541Z,96731.53
2023-05-19T15:00:27.249Z,96727.41
2023-05-19T15:02:58.853Z,96728.56
2023-05-19T15:05:30.617Z,96728.78
2023-05-19T15:08:03.245Z,96727.16
2023-05-19T15:10:36.082Z,96718.44
2023-05-19T15:13:07.715Z,96721.50
2023-05-19T15:15:39.303Z,96716.88
2023-05-19T15:18:11.444Z,96712.91
2023-05-19T15:20:43.741Z,96717.88
2023-05-19T15:23:15.499Z,96717.72
2023-05-19T15:25:47.131Z,96718.00
2023-05-19T15:28:19.945Z,96717.78
2023-05-19T15:30:51.929Z,96719.25
2023-05-19T15:33:23.617Z,96702.97
2023-05-19T15:35:55.419Z,96721.59
2023-05-19T15:38:29.148Z,96712.78
2023-05-19T15:41:07.852Z,96716.75
2023-05-19T15:43:43.131Z,96705.66
2023-05-19T15:46:16.045Z,96718.63
2023-05-19T15:48:47.847Z,96712.47
2023-05-19T15:51:19.554Z,96706.59
2023-05-19T15:53:51.485Z,96709.22
2023-05-19T15:56:23.075Z,96717.94
2023-05-19T15:58:54.679Z,96717.09
2023-05-19T16:01:26.463Z,96704.16
2023-05-19T16:03:58.397Z,96714.13
2023-05-19T16:06:32.911Z,96713.63
2023-05-19T16:09:04.584Z,96708.19
2023-05-19T16:11:36.292Z,96710.34
2023-05-19T16:14:08.089Z,96719.25
2023-05-19T16:16:39.923Z,96715.31
2023-05-19T16:19:14.953Z,96697.50
2023-05-19T16:21:46.500Z,96697.03
2023-05-19T16:24:18.452Z,96700.59
2023-05-19T16:26:50.086Z,96699.59
2023-05-19T16:29:21.763Z,96700.56
2023-05-19T16:31:53.514Z,96696.66
2023-05-19T16:34:25.233Z,96687.28
2023-05-19T16:36:56.826Z,96697.28
2023-05-19T16:39:28.433Z,96689.91
2023-05-19T16:42:00.057Z,96693.59
2023-05-19T16:44:31.826Z,96696.66
2023-05-19T16:47:04.177Z,96693.47
2023-05-19T16:49:35.980Z,96688.25
2023-05-19T16:52:08.020Z,96694.06
2023-05-19T16:54:39.870Z,96694.81
2023-05-19T16:57:22.984Z,96684.16
2023-05-19T16:59:54.639Z,96696.81
2023-05-19T17:02:26.500Z,96694.13
2023-05-19T17:04:58.404Z,96692.03
2023-05-19T17:07:30.085Z,96685.16
2023-05-19T17:10:01.722Z,96682.44
2023-05-19T17:12:33.384Z,96683.91
2023-05-19T17:15:05.817Z,96694.66
2023-05-19T17:17:37.593Z,96676.44
2023-05-19T17:20:10.185Z,96692.78
2023-05-19T17:22:41.930Z,96688.28
2023-05-19T17:25:13.519Z,96684.53
2023-05-19T17:27:45.197Z,96682.59
2023-05-19T17:30:16.812Z,96686.78
2023-05-19T17:32:48.611Z,96686.41
2023-05-19T17:35:20.754Z,96682.38
2023-05-19T17:37:52.508Z,96694.94
2023-05-19T17:40:24.241Z,96688.22
2023-05-19T17:42:56.030Z,96694.94
2023-05-19T17:45:27.788Z,96701.50
2023-05-19T17:47:59.427Z,96694.31
2023-05-19T17:50:31.340Z,96700.88
2023-05-19T17:53:03.503Z,96691.41
2023-05-19T17:55:35.813Z,96692.59
2023-05-19T17:58:08.249Z,96698.59
2023-05-19T18:00:40.336Z,96692.97
2023-05-19T18:03:12.484Z,96700.34
2023-05-19T18:05:45.533Z,96686.69
2023-05-19T18:08:17.796Z,96696.28
2023-05-19T18:10:51.693Z,96697.91
2023-05-19T18:13:23.716Z,96700.19
2023-05-19T18:15:55.625Z,96699.03
2023-05-19T18:18:27.221Z,96700.44
2023-05-19T18:21:00.924Z,96693.13
2023-05-19T18:23:32.825Z,96701.19
2023-05-19T18:26:04.489Z,96694.31
2023-05-19T18:28:36.313Z,96701.91
2023-05-19T18:31:17.431Z,96702.91
2023-05-19T18:33:49.534Z,96707.63
2023-05-19T18:36:21.272Z,96696.47
2023-05-19T18:38:53.265Z,96694.03
2023-05-19T18:41:25.689Z,96693.50
2023-05-19T18:43:58.046Z,96684.66
2023-05-19T18:46:29.959Z,96683.38
2023-05-19T18:49:03.718Z,96683.19
2023-05-19T18:51:36.124Z,96687.03
2023-05-19T18:54:07.836Z,96686.72
2023-05-19T18:56:39.665Z,96697.91
2023-05-19T18:59:11.523Z,96688.09
2023-05-19T19:01:43.141Z,96691.91
2023-05-19T19:04:16.633Z,96686.41
2023-05-19T19:06:54.520Z,96689.13
2023-05-19T19:09:28.176Z,96693.72
2023-05-19T19:12:02.915Z,96695.72
2023-05-19T19:14:36.573Z,96698.38
2023-05-19T19:17:08.329Z,96694.34
2023-05-19T19:19:40.162Z,96693.44
2023-05-19T19:22:12.578Z,96701.16
2023-05-19T19:24:44.436Z,96699.66
2023-05-19T19:27:17.710Z,96705.03
2023-05-19T19:29:52.404Z,96707.75
2023-05-19T19:32:24.694Z,96710.66
2023-05-19T19:34:56.492Z,96710.97
2023-05-19T19:37:30.192Z,96705.59
2023-05-19T19:40:01.959Z,96711.66
2023-05-19T19:42:33.766Z,96713.25
2023-05-19T19:45:06.905Z,96712.72
2023-05-19T19:47:38.591Z,96706.84
2023-05-19T19:50:11.542Z,96712.94
2023-05-19T19:52:43.230Z,96711.25
2023-05-19T19:55:14.945Z,96710.50
2023-05-19T19:57:49.268Z,96712.88
2023-05-19T20:00:21.524Z,96713.41
2023-05-19T20:03:04.289Z,96714.63
2023-05-19T20:05:38.401Z,96710.06
2023-05-19T20:08:14.156Z,96723.19
2023-05-19T20:10:48.219Z,96717.13
2023-05-19T20:13:22.840Z,96715.91
2023-05-19T20:15:54.472Z,96706.91
2023-05-19T20:18:27.861Z,96699.22
2023-05-19T20:20:59.516Z,96700.50
2023-05-19T20:23:31.092Z,96699.38
2023-05-19T20:26:11.077Z,96695.25
2023-05-19T20:28:47.662Z,96696.34
2023-05-19T20:31:21.536Z,96691.59
2023-05-19T20:33:53.235Z,96691.91
2023-05-19T20:36:24.934Z,96690.84
2023-05-19T20:38:56.525Z,96685.03
2023-05-19T20:41:28.190Z,96685.03
2023-05-19T20:43:59.885Z,96679.84
2023-05-19T20:46:34.607Z,96676.91
2023-05-19T20:49:06.449Z,96678.34
2023-05-19T20:51:38.068Z,96673.59
2023-05-19T20:54:09.852Z,96672.69
2023-05-19T20:56:43.756Z,96671.94
2023-05-19T20:59:17.408Z,96678.47
2023-05-19T21:01:49.102Z,96673.59
2023-05-19T21:04:24.075Z,96676.94
2023-05-19T21:06:55.768Z,96666.72
2023-05-19T21:09:27.407Z,96669.25
2023-05-19T21:11:59.035Z,96669.16
2023-05-19T21:14:30.694Z,96687.59
2023-05-19T21:17:02.383Z,96678.63
2023-05-19T21:19:38.495Z,96686.84
2023-05-19T21:22:10.209Z,96681.06
2023-05-19T21:24:41.871Z,96678.31
2023-05-19T21:27:13.537Z,96689.59
2023-05-19T21:29:45.113Z,96671.75
2023-05-19T21:32:16.723Z,96674.50
2023-05-19T21:34:48.908Z,96681.97
2023-05-19T21:37:21.663Z,96678.47
2023-05-19T21:39:53.268Z,96671.28
2023-05-19T21:42:24.911Z,96657.88
2023-05-19T21:44:56.572Z,96668.56
2023-05-19T21:47:28.566Z,96665.22
2023-05-19T21:50:00.205Z,96663.97
2023-05-19T21:52:31.880Z,96663.97
2023-05-19T21:55:03.829Z,96657.63
2023-05-19T21:57:35.443Z,96660.13
2023-05-19T22:00:08.511Z,96657.72
2023-05-19T22:02:40.511Z,96655.75
2023-05-19T22:05:17.421Z,96649.28
2023-05-19T22:07:49.048Z,96647.97
2023-05-19T22:10:26.783Z,96647.81
2023-05-19T22:12:58.700Z,96647.34
2023-05-19T22:15:30.336Z,96642.78
2023-05-19T22:18:02.083Z,96643.22
2023-05-19T22:20:34.346Z,96633.94
2023-05-19T22:23:06.183Z,96633.63
2023-05-19T22:25:38.061Z,96629.38
2023-05-19T22:28:09.684Z,96627.41
2023-05-19T22:30:42.293Z,96624.94
2023-05-19T22:33:14.119Z,96615.50
2023-05-19T22:35:49.501Z,96621.16
2023-05-19T22:38:21.051Z,96624.03
2023-05-19T22:40:52.670Z,96617.78
2023-05-19T22:43:24.393Z,96627.47
2023-05-19T22:45:56.113Z,96617.78
2023-05-19T22:48:27.735Z,96613.53
2023-05-19T22:50:59.457Z,96616.13
2023-05-19T22:53:31.095Z,96620.31
2023-05-19T22:56:02.714Z,96615.06
2023-05-19T22:58:34.430Z,96611.06
2023-05-19T23:01:06.213Z,96610.75
2023-05-19T23:03:37.858Z,96605.22
2023-05-19T23:06:12.540Z,96611.00
2023-05-19T23:08:46.817Z,96618.38
2023-05-19T23:11:18.443Z,96611.00
2023-05-19T23:13:50.011Z,96598.25
2023-05-19T23:16:21.946Z,96598.06
2023-05-19T23:18:53.577Z,96590.16
2023-05-19T23:21:25.416Z,96589.06
2023-05-19T23:23:57.067Z,96581.78
2023-05-19T23:26:28.737Z,96585.09
2023-05-19T23:29:00.528Z,96582.50
2023-05-19T23:31:32.204Z,96576.84
2023-05-19T23:34:07.558Z,96577.72
2023-05-19T23:36:39.168Z,96567.53
2023-05-19T23:39:11.401Z,96560.34
2023-05-19T23:41:43.039Z,96562.56
2023-05-19T23:44:14.647Z,96572.72
2023-05-19T23:46:46.474Z,96568.22
2023-05-19T23:49:18.348Z,96568.81
2023-05-19T23:51:50.105Z,96558.84
2023-05-19T23:54:21.876Z,96557.31
2023-05-19T23:56:54.572Z,96561.44
2023-05-19T23:59:26.233Z,96556.31
